sensor_id;sensor_type;location;lat;lon;timestamp;P1;durP1;ratioP1;P2;durP2;ratioP2
11921;SDS011;6021;51.182;3.160;2023-01-06T00:01:34;5.10;;;2.20;;
11921;SDS011;6021;51.182;3.160;2023-01-06T00:04:03;4.17;;;2.23;;
11921;SDS011;6021;51.182;3.160;2023-01-06T00:06:31;5.67;;;2.27;;
11921;SDS011;6021;51.182;3.160;2023-01-06T00:09:01;4.73;;;2.10;;
11921;SDS011;6021;51.182;3.160;2023-01-06T00:11:31;5.00;;;2.10;;
11921;SDS011;6021;51.182;3.160;2023-01-06T00:14:00;3.90;;;2.13;;
11921;SDS011;6021;51.182;3.160;2023-01-06T00:16:29;5.03;;;2.20;;
11921;SDS011;6021;51.182;3.160;2023-01-06T00:18:58;4.40;;;1.83;;
11921;SDS011;6021;51.182;3.160;2023-01-06T00:21:27;4.90;;;2.17;;
11921;SDS011;6021;51.182;3.160;2023-01-06T00:23:55;5.63;;;2.20;;
11921;SDS011;6021;51.182;3.160;2023-01-06T00:26:24;5.10;;;2.10;;
11921;SDS011;6021;51.182;3.160;2023-01-06T00:28:54;7.57;;;2.30;;
11921;SDS011;6021;51.182;3.160;2023-01-06T00:31:23;3.57;;;1.90;;
11921;SDS011;6021;51.182;3.160;2023-01-06T00:33:51;3.83;;;1.80;;
11921;SDS011;6021;51.182;3.160;2023-01-06T00:36:22;3.23;;;1.97;;
11921;SDS011;6021;51.182;3.160;2023-01-06T00:38:51;4.03;;;2.00;;
11921;SDS011;6021;51.182;3.160;2023-01-06T00:41:20;4.80;;;2.10;;
11921;SDS011;6021;51.182;3.160;2023-01-06T00:44:07;5.73;;;1.90;;
11921;SDS011;6021;51.182;3.160;2023-01-06T00:46:35;4.10;;;1.70;;
11921;SDS011;6021;51.182;3.160;2023-01-06T00:49:04;3.30;;;2.00;;
11921;SDS011;6021;51.182;3.160;2023-01-06T00:51:36;3.40;;;2.00;;
11921;SDS011;6021;51.182;3.160;2023-01-06T00:54:06;4.27;;;1.87;;
11921;SDS011;6021;51.182;3.160;2023-01-06T00:56:40;2.57;;;1.90;;
11921;SDS011;6021;51.182;3.160;2023-01-06T00:59:11;5.07;;;1.90;;
11921;SDS011;6021;51.182;3.160;2023-01-06T01:01:41;3.23;;;2.23;;
11921;SDS011;6021;51.182;3.160;2023-01-06T01:04:10;3.03;;;1.90;;
11921;SDS011;6021;51.182;3.160;2023-01-06T01:06:39;5.53;;;2.10;;
11921;SDS011;6021;51.182;3.160;2023-01-06T01:09:10;4.83;;;2.13;;
11921;SDS011;6021;51.182;3.160;2023-01-06T01:11:41;2.03;;;1.83;;
11921;SDS011;6021;51.182;3.160;2023-01-06T01:14:27;4.60;;;2.00;;
11921;SDS011;6021;51.182;3.160;2023-01-06T01:16:56;4.23;;;2.00;;
11921;SDS011;6021;51.182;3.160;2023-01-06T01:19:25;7.23;;;2.03;;
11921;SDS011;6021;51.182;3.160;2023-01-06T01:21:55;3.87;;;2.00;;
11921;SDS011;6021;51.182;3.160;2023-01-06T01:24:23;4.80;;;1.90;;
11921;SDS011;6021;51.182;3.160;2023-01-06T01:26:51;5.03;;;2.40;;
11921;SDS011;6021;51.182;3.160;2023-01-06T01:29:20;4.23;;;2.30;;
11921;SDS011;6021;51.182;3.160;2023-01-06T01:31:48;3.37;;;2.10;;
11921;SDS011;6021;51.182;3.160;2023-01-06T01:34:17;3.57;;;1.97;;
11921;SDS011;6021;51.182;3.160;2023-01-06T01:36:46;5.53;;;2.30;;
11921;SDS011;6021;51.182;3.160;2023-01-06T01:39:17;4.47;;;1.97;;
11921;SDS011;6021;51.182;3.160;2023-01-06T01:41:48;4.03;;;2.33;;
11921;SDS011;6021;51.182;3.160;2023-01-06T01:52:45;5.10;;;2.43;;
11921;SDS011;6021;51.182;3.160;2023-01-06T01:55:16;3.93;;;1.83;;
11921;SDS011;6021;51.182;3.160;2023-01-06T01:57:59;2.97;;;1.90;;
11921;SDS011;6021;51.182;3.160;2023-01-06T02:00:26;2.83;;;2.00;;
11921;SDS011;6021;51.182;3.160;2023-01-06T02:02:55;6.10;;;2.13;;
11921;SDS011;6021;51.182;3.160;2023-01-06T02:05:24;2.60;;;2.00;;
11921;SDS011;6021;51.182;3.160;2023-01-06T02:07:54;2.40;;;2.00;;
11921;SDS011;6021;51.182;3.160;2023-01-06T02:10:25;3.57;;;2.10;;
11921;SDS011;6021;51.182;3.160;2023-01-06T02:12:55;4.13;;;2.10;;
11921;SDS011;6021;51.182;3.160;2023-01-06T02:15:26;2.70;;;1.80;;
11921;SDS011;6021;51.182;3.160;2023-01-06T02:18:00;3.93;;;2.10;;
11921;SDS011;6021;51.182;3.160;2023-01-06T02:31:57;3.60;;;1.90;;
11921;SDS011;6021;51.182;3.160;2023-01-06T02:40:18;2.07;;;1.77;;
11921;SDS011;6021;51.182;3.160;2023-01-06T02:51:06;2.83;;;2.00;;
11921;SDS011;6021;51.182;3.160;2023-01-06T02:56:49;3.33;;;2.00;;
11921;SDS011;6021;51.182;3.160;2023-01-06T02:59:21;2.00;;;1.80;;
11921;SDS011;6021;51.182;3.160;2023-01-06T03:01:51;1.70;;;1.60;;
11921;SDS011;6021;51.182;3.160;2023-01-06T03:04:25;3.77;;;1.80;;
11921;SDS011;6021;51.182;3.160;2023-01-06T03:06:55;3.10;;;1.73;;
11921;SDS011;6021;51.182;3.160;2023-01-06T03:09:27;4.50;;;1.60;;
11921;SDS011;6021;51.182;3.160;2023-01-06T03:11:58;4.17;;;1.50;;
11921;SDS011;6021;51.182;3.160;2023-01-06T03:14:39;2.67;;;1.50;;
11921;SDS011;6021;51.182;3.160;2023-01-06T03:17:09;3.50;;;1.53;;
11921;SDS011;6021;51.182;3.160;2023-01-06T03:19:39;3.67;;;1.60;;
11921;SDS011;6021;51.182;3.160;2023-01-06T03:22:08;3.57;;;1.70;;
11921;SDS011;6021;51.182;3.160;2023-01-06T03:24:38;3.73;;;1.60;;
11921;SDS011;6021;51.182;3.160;2023-01-06T03:27:08;1.57;;;1.40;;
11921;SDS011;6021;51.182;3.160;2023-01-06T03:29:37;2.80;;;1.40;;
11921;SDS011;6021;51.182;3.160;2023-01-06T03:32:52;2.27;;;1.50;;
11921;SDS011;6021;51.182;3.160;2023-01-06T03:40:19;3.13;;;1.40;;
11921;SDS011;6021;51.182;3.160;2023-01-06T03:42:49;2.13;;;1.30;;
11921;SDS011;6021;51.182;3.160;2023-01-06T03:45:55;2.87;;;1.20;;
11921;SDS011;6021;51.182;3.160;2023-01-06T03:56:37;1.70;;;1.30;;
11921;SDS011;6021;51.182;3.160;2023-01-06T03:59:08;1.90;;;1.30;;
11921;SDS011;6021;51.182;3.160;2023-01-06T04:01:38;2.20;;;1.30;;
11921;SDS011;6021;51.182;3.160;2023-01-06T04:04:11;2.00;;;1.20;;
11921;SDS011;6021;51.182;3.160;2023-01-06T04:06:39;2.70;;;1.20;;
11921;SDS011;6021;51.182;3.160;2023-01-06T04:09:08;2.00;;;1.47;;
11921;SDS011;6021;51.182;3.160;2023-01-06T04:11:36;1.90;;;1.30;;
11921;SDS011;6021;51.182;3.160;2023-01-06T04:14:22;2.00;;;1.20;;
11921;SDS011;6021;51.182;3.160;2023-01-06T04:16:51;1.53;;;1.13;;
11921;SDS011;6021;51.182;3.160;2023-01-06T04:19:19;2.00;;;1.30;;
11921;SDS011;6021;51.182;3.160;2023-01-06T04:21:48;2.30;;;1.40;;
11921;SDS011;6021;51.182;3.160;2023-01-06T04:24:16;1.60;;;1.10;;
11921;SDS011;6021;51.182;3.160;2023-01-06T04:26:44;2.70;;;1.40;;
11921;SDS011;6021;51.182;3.160;2023-01-06T04:29:13;1.53;;;1.30;;
11921;SDS011;6021;51.182;3.160;2023-01-06T04:31:41;1.77;;;1.43;;
11921;SDS011;6021;51.182;3.160;2023-01-06T04:34:10;2.33;;;1.40;;
11921;SDS011;6021;51.182;3.160;2023-01-06T04:36:38;1.53;;;1.40;;
11921;SDS011;6021;51.182;3.160;2023-01-06T04:39:06;1.50;;;1.40;;
11921;SDS011;6021;51.182;3.160;2023-01-06T04:41:35;2.30;;;1.20;;
11921;SDS011;6021;51.182;3.160;2023-01-06T04:44:03;2.40;;;1.40;;
11921;SDS011;6021;51.182;3.160;2023-01-06T04:46:31;1.63;;;1.53;;
11921;SDS011;6021;51.182;3.160;2023-01-06T04:49:00;1.63;;;1.40;;
11921;SDS011;6021;51.182;3.160;2023-01-06T04:51:28;1.77;;;1.30;;
11921;SDS011;6021;51.182;3.160;2023-01-06T04:53:57;1.87;;;1.67;;
11921;SDS011;6021;51.182;3.160;2023-01-06T04:56:25;2.07;;;1.50;;
11921;SDS011;6021;51.182;3.160;2023-01-06T04:58:54;1.60;;;1.50;;
11921;SDS011;6021;51.182;3.160;2023-01-06T05:01:23;1.77;;;1.60;;
11921;SDS011;6021;51.182;3.160;2023-01-06T05:03:53;2.67;;;1.67;;
11921;SDS011;6021;51.182;3.160;2023-01-06T05:06:21;1.77;;;1.67;;
11921;SDS011;6021;51.182;3.160;2023-01-06T05:08:50;1.97;;;1.50;;
11921;SDS011;6021;51.182;3.160;2023-01-06T05:11:19;5.00;;;2.00;;
11921;SDS011;6021;51.182;3.160;2023-01-06T05:13:48;2.10;;;1.67;;
11921;SDS011;6021;51.182;3.160;2023-01-06T05:18:49;2.23;;;1.70;;
11921;SDS011;6021;51.182;3.160;2023-01-06T05:21:18;2.07;;;1.87;;
11921;SDS011;6021;51.182;3.160;2023-01-06T05:23:46;3.50;;;2.10;;
11921;SDS011;6021;51.182;3.160;2023-01-06T05:26:17;1.90;;;1.80;;
11921;SDS011;6021;51.182;3.160;2023-01-06T05:28:48;2.50;;;1.70;;
11921;SDS011;6021;51.182;3.160;2023-01-06T05:31:17;1.93;;;1.73;;
11921;SDS011;6021;51.182;3.160;2023-01-06T05:33:45;1.93;;;1.83;;
11921;SDS011;6021;51.182;3.160;2023-01-06T05:36:14;2.13;;;1.77;;
11921;SDS011;6021;51.182;3.160;2023-01-06T05:38:43;2.37;;;1.73;;
11921;SDS011;6021;51.182;3.160;2023-01-06T05:41:13;2.37;;;1.90;;
11921;SDS011;6021;51.182;3.160;2023-01-06T05:43:42;2.53;;;1.90;;
11921;SDS011;6021;51.182;3.160;2023-01-06T05:46:10;2.00;;;1.90;;
11921;SDS011;6021;51.182;3.160;2023-01-06T05:48:39;2.00;;;1.80;;
11921;SDS011;6021;51.182;3.160;2023-01-06T05:51:09;5.20;;;1.80;;
11921;SDS011;6021;51.182;3.160;2023-01-06T05:53:41;1.80;;;1.70;;
11921;SDS011;6021;51.182;3.160;2023-01-06T05:56:11;1.93;;;1.70;;
11921;SDS011;6021;51.182;3.160;2023-01-06T05:58:45;2.33;;;1.57;;
11921;SDS011;6021;51.182;3.160;2023-01-06T06:01:17;2.40;;;1.80;;
11921;SDS011;6021;51.182;3.160;2023-01-06T06:03:47;2.30;;;2.03;;
11921;SDS011;6021;51.182;3.160;2023-01-06T06:06:16;2.07;;;1.80;;
11921;SDS011;6021;51.182;3.160;2023-01-06T06:08:45;1.70;;;1.60;;
11921;SDS011;6021;51.182;3.160;2023-01-06T06:11:14;2.00;;;1.80;;
11921;SDS011;6021;51.182;3.160;2023-01-06T06:13:45;3.10;;;2.00;;
11921;SDS011;6021;51.182;3.160;2023-01-06T06:16:15;1.90;;;1.80;;
11921;SDS011;6021;51.182;3.160;2023-01-06T06:18:47;2.00;;;1.90;;
11921;SDS011;6021;51.182;3.160;2023-01-06T06:21:20;2.20;;;2.00;;
11921;SDS011;6021;51.182;3.160;2023-01-06T06:23:51;2.43;;;2.10;;
11921;SDS011;6021;51.182;3.160;2023-01-06T06:26:20;3.80;;;2.00;;
11921;SDS011;6021;51.182;3.160;2023-01-06T06:28:48;2.30;;;2.10;;
11921;SDS011;6021;51.182;3.160;2023-01-06T06:31:18;2.70;;;2.00;;
11921;SDS011;6021;51.182;3.160;2023-01-06T06:33:55;2.00;;;1.80;;
11921;SDS011;6021;51.182;3.160;2023-01-06T06:36:19;2.10;;;1.90;;
11921;SDS011;6021;51.182;3.160;2023-01-06T06:38:48;3.17;;;2.00;;
11921;SDS011;6021;51.182;3.160;2023-01-06T06:41:17;4.20;;;2.10;;
11921;SDS011;6021;51.182;3.160;2023-01-06T06:43:47;2.60;;;2.00;;
11921;SDS011;6021;51.182;3.160;2023-01-06T06:46:16;3.67;;;1.90;;
11921;SDS011;6021;51.182;3.160;2023-01-06T06:48:45;2.67;;;1.80;;
11921;SDS011;6021;51.182;3.160;2023-01-06T06:51:16;3.80;;;2.00;;
11921;SDS011;6021;51.182;3.160;2023-01-06T06:53:46;2.20;;;1.80;;
11921;SDS011;6021;51.182;3.160;2023-01-06T06:56:16;3.17;;;1.97;;
11921;SDS011;6021;51.182;3.160;2023-01-06T06:58:45;2.07;;;1.87;;
11921;SDS011;6021;51.182;3.160;2023-01-06T07:01:15;2.87;;;2.10;;
11921;SDS011;6021;51.182;3.160;2023-01-06T07:03:45;3.80;;;2.10;;
11921;SDS011;6021;51.182;3.160;2023-01-06T07:06:15;2.50;;;1.80;;
11921;SDS011;6021;51.182;3.160;2023-01-06T07:08:47;3.07;;;1.93;;
11921;SDS011;6021;51.182;3.160;2023-01-06T07:11:16;5.43;;;1.70;;
11921;SDS011;6021;51.182;3.160;2023-01-06T07:13:45;3.47;;;1.77;;
11921;SDS011;6021;51.182;3.160;2023-01-06T07:16:14;2.40;;;1.80;;
11921;SDS011;6021;51.182;3.160;2023-01-06T07:18:42;2.50;;;1.77;;
11921;SDS011;6021;51.182;3.160;2023-01-06T07:21:11;7.83;;;2.10;;
11921;SDS011;6021;51.182;3.160;2023-01-06T07:23:39;4.50;;;1.80;;
11921;SDS011;6021;51.182;3.160;2023-01-06T07:26:08;3.83;;;2.10;;
11921;SDS011;6021;51.182;3.160;2023-01-06T07:28:37;5.83;;;1.90;;
11921;SDS011;6021;51.182;3.160;2023-01-06T07:31:05;5.70;;;1.90;;
11921;SDS011;6021;51.182;3.160;2023-01-06T07:33:34;6.40;;;1.93;;
11921;SDS011;6021;51.182;3.160;2023-01-06T07:36:02;6.13;;;2.40;;
11921;SDS011;6021;51.182;3.160;2023-01-06T07:38:31;6.23;;;2.17;;
11921;SDS011;6021;51.182;3.160;2023-01-06T07:40:59;6.57;;;2.30;;
11921;SDS011;6021;51.182;3.160;2023-01-06T07:43:28;5.60;;;2.20;;
11921;SDS011;6021;51.182;3.160;2023-01-06T07:45:57;8.10;;;2.63;;
11921;SDS011;6021;51.182;3.160;2023-01-06T07:48:25;7.23;;;2.40;;
11921;SDS011;6021;51.182;3.160;2023-01-06T07:50:54;9.57;;;2.40;;
11921;SDS011;6021;51.182;3.160;2023-01-06T07:53:24;7.73;;;2.07;;
11921;SDS011;6021;51.182;3.160;2023-01-06T07:55:53;7.27;;;2.20;;
11921;SDS011;6021;51.182;3.160;2023-01-06T07:58:21;12.33;;;2.83;;
11921;SDS011;6021;51.182;3.160;2023-01-06T08:00:50;8.63;;;1.87;;
11921;SDS011;6021;51.182;3.160;2023-01-06T08:03:19;7.80;;;2.00;;
11921;SDS011;6021;51.182;3.160;2023-01-06T08:05:47;6.20;;;2.17;;
11921;SDS011;6021;51.182;3.160;2023-01-06T08:08:16;10.73;;;2.40;;
11921;SDS011;6021;51.182;3.160;2023-01-06T08:10:44;16.60;;;2.80;;
11921;SDS011;6021;51.182;3.160;2023-01-06T08:13:13;7.03;;;2.40;;
11921;SDS011;6021;51.182;3.160;2023-01-06T08:15:41;9.07;;;2.60;;
11921;SDS011;6021;51.182;3.160;2023-01-06T08:18:10;12.57;;;2.80;;
11921;SDS011;6021;51.182;3.160;2023-01-06T08:20:38;16.73;;;2.73;;
11921;SDS011;6021;51.182;3.160;2023-01-06T08:23:07;15.17;;;2.50;;
11921;SDS011;6021;51.182;3.160;2023-01-06T08:25:35;14.13;;;2.97;;
11921;SDS011;6021;51.182;3.160;2023-01-06T08:28:04;17.73;;;3.03;;
11921;SDS011;6021;51.182;3.160;2023-01-06T08:30:32;18.50;;;2.93;;
11921;SDS011;6021;51.182;3.160;2023-01-06T08:33:02;10.73;;;2.37;;
11921;SDS011;6021;51.182;3.160;2023-01-06T08:35:31;14.23;;;3.20;;
11921;SDS011;6021;51.182;3.160;2023-01-06T08:37:59;12.67;;;3.20;;
11921;SDS011;6021;51.182;3.160;2023-01-06T08:40:27;12.07;;;2.93;;
11921;SDS011;6021;51.182;3.160;2023-01-06T08:42:56;13.13;;;2.70;;
11921;SDS011;6021;51.182;3.160;2023-01-06T08:45:24;13.50;;;3.30;;
11921;SDS011;6021;51.182;3.160;2023-01-06T08:47:53;16.60;;;3.40;;
11921;SDS011;6021;51.182;3.160;2023-01-06T08:50:21;12.57;;;3.20;;
11921;SDS011;6021;51.182;3.160;2023-01-06T08:52:49;16.10;;;3.50;;
11921;SDS011;6021;51.182;3.160;2023-01-06T08:55:18;14.80;;;3.60;;
11921;SDS011;6021;51.182;3.160;2023-01-06T08:57:47;14.20;;;3.23;;
11921;SDS011;6021;51.182;3.160;2023-01-06T09:00:15;12.23;;;2.77;;
11921;SDS011;6021;51.182;3.160;2023-01-06T09:02:44;15.20;;;3.07;;
11921;SDS011;6021;51.182;3.160;2023-01-06T09:05:12;12.67;;;3.20;;
11921;SDS011;6021;51.182;3.160;2023-01-06T09:07:41;7.70;;;2.70;;
11921;SDS011;6021;51.182;3.160;2023-01-06T09:10:09;10.63;;;2.97;;
11921;SDS011;6021;51.182;3.160;2023-01-06T09:12:38;10.17;;;2.60;;
11921;SDS011;6021;51.182;3.160;2023-01-06T09:15:06;10.17;;;2.57;;
11921;SDS011;6021;51.182;3.160;2023-01-06T09:17:35;9.23;;;2.70;;
11921;SDS011;6021;51.182;3.160;2023-01-06T09:20:04;10.87;;;2.77;;
11921;SDS011;6021;51.182;3.160;2023-01-06T09:22:32;10.57;;;3.10;;
11921;SDS011;6021;51.182;3.160;2023-01-06T09:25:00;8.67;;;2.80;;
11921;SDS011;6021;51.182;3.160;2023-01-06T09:27:29;11.27;;;2.80;;
11921;SDS011;6021;51.182;3.160;2023-01-06T09:29:58;11.60;;;2.90;;
11921;SDS011;6021;51.182;3.160;2023-01-06T09:32:26;11.37;;;2.80;;
11921;SDS011;6021;51.182;3.160;2023-01-06T09:34:54;14.13;;;2.80;;
11921;SDS011;6021;51.182;3.160;2023-01-06T09:37:23;9.50;;;2.80;;
11921;SDS011;6021;51.182;3.160;2023-01-06T09:39:51;10.33;;;2.70;;
11921;SDS011;6021;51.182;3.160;2023-01-06T09:42:26;12.73;;;3.10;;
11921;SDS011;6021;51.182;3.160;2023-01-06T09:44:57;11.13;;;3.03;;
11921;SDS011;6021;51.182;3.160;2023-01-06T09:47:32;8.40;;;2.90;;
11921;SDS011;6021;51.182;3.160;2023-01-06T09:52:52;10.43;;;2.90;;
11921;SDS011;6021;51.182;3.160;2023-01-06T09:58:47;7.47;;;2.40;;
11921;SDS011;6021;51.182;3.160;2023-01-06T10:00:35;9.00;;;2.60;;
11921;SDS011;6021;51.182;3.160;2023-01-06T10:03:15;12.70;;;3.60;;
11921;SDS011;6021;51.182;3.160;2023-01-06T10:09:06;13.30;;;4.00;;
11921;SDS011;6021;51.182;3.160;2023-01-06T10:11:50;11.83;;;3.20;;
11921;SDS011;6021;51.182;3.160;2023-01-06T10:14:28;15.83;;;3.97;;
11921;SDS011;6021;51.182;3.160;2023-01-06T10:17:16;15.07;;;3.73;;
11921;SDS011;6021;51.182;3.160;2023-01-06T10:25:44;16.93;;;4.07;;
11921;SDS011;6021;51.182;3.160;2023-01-06T10:31:05;12.03;;;3.30;;
11921;SDS011;6021;51.182;3.160;2023-01-06T10:33:37;15.20;;;3.63;;
11921;SDS011;6021;51.182;3.160;2023-01-06T10:36:18;13.53;;;3.70;;
11921;SDS011;6021;51.182;3.160;2023-01-06T10:38:44;14.07;;;3.50;;
11921;SDS011;6021;51.182;3.160;2023-01-06T10:44:13;15.90;;;3.10;;
11921;SDS011;6021;51.182;3.160;2023-01-06T10:46:43;14.63;;;3.10;;
11921;SDS011;6021;51.182;3.160;2023-01-06T10:49:15;11.23;;;2.90;;
11921;SDS011;6021;51.182;3.160;2023-01-06T10:51:50;11.53;;;2.90;;
11921;SDS011;6021;51.182;3.160;2023-01-06T10:54:22;11.17;;;2.77;;
11921;SDS011;6021;51.182;3.160;2023-01-06T10:57:00;13.13;;;3.13;;
11921;SDS011;6021;51.182;3.160;2023-01-06T10:59:30;9.87;;;2.90;;
11921;SDS011;6021;51.182;3.160;2023-01-06T11:01:58;9.87;;;2.93;;
11921;SDS011;6021;51.182;3.160;2023-01-06T11:04:27;11.03;;;2.87;;
11921;SDS011;6021;51.182;3.160;2023-01-06T11:06:59;10.73;;;2.67;;
11921;SDS011;6021;51.182;3.160;2023-01-06T11:09:35;10.43;;;2.63;;
11921;SDS011;6021;51.182;3.160;2023-01-06T11:12:01;10.63;;;2.57;;
11921;SDS011;6021;51.182;3.160;2023-01-06T11:14:31;6.63;;;2.10;;
11921;SDS011;6021;51.182;3.160;2023-01-06T11:17:02;5.33;;;2.00;;
11921;SDS011;6021;51.182;3.160;2023-01-06T11:19:34;8.57;;;1.90;;
11921;SDS011;6021;51.182;3.160;2023-01-06T11:22:05;10.50;;;2.40;;
11921;SDS011;6021;51.182;3.160;2023-01-06T11:24:35;11.63;;;2.40;;
11921;SDS011;6021;51.182;3.160;2023-01-06T11:27:18;8.27;;;2.07;;
11921;SDS011;6021;51.182;3.160;2023-01-06T11:29:43;10.73;;;2.23;;
11921;SDS011;6021;51.182;3.160;2023-01-06T11:32:12;8.03;;;2.03;;
11921;SDS011;6021;51.182;3.160;2023-01-06T11:35:00;9.70;;;2.50;;
11921;SDS011;6021;51.182;3.160;2023-01-06T11:37:33;9.50;;;2.80;;
11921;SDS011;6021;51.182;3.160;2023-01-06T11:40:15;9.77;;;2.47;;
11921;SDS011;6021;51.182;3.160;2023-01-06T11:42:35;10.90;;;2.70;;
11921;SDS011;6021;51.182;3.160;2023-01-06T11:45:05;7.87;;;2.60;;
11921;SDS011;6021;51.182;3.160;2023-01-06T11:47:34;9.90;;;2.57;;
11921;SDS011;6021;51.182;3.160;2023-01-06T11:50:02;10.07;;;2.27;;
11921;SDS011;6021;51.182;3.160;2023-01-06T11:52:31;5.67;;;1.87;;
11921;SDS011;6021;51.182;3.160;2023-01-06T12:00:46;7.23;;;1.73;;
11921;SDS011;6021;51.182;3.160;2023-01-06T12:13:59;7.20;;;2.23;;
11921;SDS011;6021;51.182;3.160;2023-01-06T12:16:34;7.50;;;2.10;;
11921;SDS011;6021;51.182;3.160;2023-01-06T12:21:55;8.00;;;2.10;;
11921;SDS011;6021;51.182;3.160;2023-01-06T12:24:25;7.17;;;1.77;;
11921;SDS011;6021;51.182;3.160;2023-01-06T12:27:03;7.80;;;2.07;;
11921;SDS011;6021;51.182;3.160;2023-01-06T12:29:29;7.17;;;2.10;;
11921;SDS011;6021;51.182;3.160;2023-01-06T12:32:03;6.97;;;1.80;;
11921;SDS011;6021;51.182;3.160;2023-01-06T12:34:44;7.70;;;1.97;;
11921;SDS011;6021;51.182;3.160;2023-01-06T12:37:25;6.93;;;2.10;;
11921;SDS011;6021;51.182;3.160;2023-01-06T12:39:54;9.47;;;2.60;;
11921;SDS011;6021;51.182;3.160;2023-01-06T12:42:27;7.90;;;2.20;;
11921;SDS011;6021;51.182;3.160;2023-01-06T12:47:54;8.00;;;2.63;;
11921;SDS011;6021;51.182;3.160;2023-01-06T12:50:39;11.23;;;2.77;;
11921;SDS011;6021;51.182;3.160;2023-01-06T12:53:25;8.57;;;2.13;;
11921;SDS011;6021;51.182;3.160;2023-01-06T13:04:47;7.20;;;2.57;;
11921;SDS011;6021;51.182;3.160;2023-01-06T13:10:27;6.90;;;2.00;;
11921;SDS011;6021;51.182;3.160;2023-01-06T13:13:11;8.03;;;2.13;;
11921;SDS011;6021;51.182;3.160;2023-01-06T13:15:45;6.63;;;2.27;;
11921;SDS011;6021;51.182;3.160;2023-01-06T13:26:25;8.10;;;2.47;;
11921;SDS011;6021;51.182;3.160;2023-01-06T13:39:45;9.37;;;2.63;;
11921;SDS011;6021;51.182;3.160;2023-01-06T13:42:17;11.27;;;2.70;;
11921;SDS011;6021;51.182;3.160;2023-01-06T13:44:47;6.23;;;2.27;;
11921;SDS011;6021;51.182;3.160;2023-01-06T13:47:17;6.20;;;2.50;;
11921;SDS011;6021;51.182;3.160;2023-01-06T13:49:47;8.53;;;2.60;;
11921;SDS011;6021;51.182;3.160;2023-01-06T13:52:24;7.53;;;2.37;;
11921;SDS011;6021;51.182;3.160;2023-01-06T13:55:20;6.00;;;2.50;;
11921;SDS011;6021;51.182;3.160;2023-01-06T13:57:33;9.00;;;2.73;;
11921;SDS011;6021;51.182;3.160;2023-01-06T14:07:51;7.90;;;2.90;;
11921;SDS011;6021;51.182;3.160;2023-01-06T14:10:40;10.47;;;3.63;;
11921;SDS011;6021;51.182;3.160;2023-01-06T14:13:21;6.97;;;2.97;;
11921;SDS011;6021;51.182;3.160;2023-01-06T14:15:59;7.97;;;3.13;;
11921;SDS011;6021;51.182;3.160;2023-01-06T14:18:42;7.67;;;2.90;;
11921;SDS011;6021;51.182;3.160;2023-01-06T14:21:21;5.10;;;2.73;;
11921;SDS011;6021;51.182;3.160;2023-01-06T14:23:51;7.63;;;3.13;;
11921;SDS011;6021;51.182;3.160;2023-01-06T14:26:42;7.80;;;2.70;;
11921;SDS011;6021;51.182;3.160;2023-01-06T14:29:02;4.40;;;2.60;;
11921;SDS011;6021;51.182;3.160;2023-01-06T14:34:03;6.43;;;2.93;;
11921;SDS011;6021;51.182;3.160;2023-01-06T14:36:34;5.10;;;2.03;;
11921;SDS011;6021;51.182;3.160;2023-01-06T14:39:04;3.87;;;1.93;;
11921;SDS011;6021;51.182;3.160;2023-01-06T14:41:48;3.50;;;1.90;;
11921;SDS011;6021;51.182;3.160;2023-01-06T14:44:23;1.90;;;1.60;;
11921;SDS011;6021;51.182;3.160;2023-01-06T14:47:17;2.93;;;1.60;;
11921;SDS011;6021;51.182;3.160;2023-01-06T14:49:44;2.67;;;1.70;;
11921;SDS011;6021;51.182;3.160;2023-01-06T14:52:15;2.57;;;1.50;;
11921;SDS011;6021;51.182;3.160;2023-01-06T14:54:48;3.17;;;1.90;;
11921;SDS011;6021;51.182;3.160;2023-01-06T14:57:38;2.17;;;1.70;;
11921;SDS011;6021;51.182;3.160;2023-01-06T15:02:52;3.23;;;1.73;;
11921;SDS011;6021;51.182;3.160;2023-01-06T15:05:24;3.10;;;1.50;;
11921;SDS011;6021;51.182;3.160;2023-01-06T15:07:59;1.70;;;1.60;;
11921;SDS011;6021;51.182;3.160;2023-01-06T15:10:37;2.23;;;1.30;;
11921;SDS011;6021;51.182;3.160;2023-01-06T15:13:21;2.03;;;1.47;;
11921;SDS011;6021;51.182;3.160;2023-01-06T15:16:00;2.57;;;1.70;;
11921;SDS011;6021;51.182;3.160;2023-01-06T15:18:33;1.77;;;1.37;;
11921;SDS011;6021;51.182;3.160;2023-01-06T15:21:02;2.20;;;1.50;;
11921;SDS011;6021;51.182;3.160;2023-01-06T15:23:32;2.10;;;1.50;;
11921;SDS011;6021;51.182;3.160;2023-01-06T15:26:00;1.67;;;1.53;;
11921;SDS011;6021;51.182;3.160;2023-01-06T15:28:30;1.33;;;1.20;;
11921;SDS011;6021;51.182;3.160;2023-01-06T15:31:00;2.30;;;1.50;;
11921;SDS011;6021;51.182;3.160;2023-01-06T15:33:35;1.60;;;1.50;;
11921;SDS011;6021;51.182;3.160;2023-01-06T15:36:06;2.27;;;1.40;;
11921;SDS011;6021;51.182;3.160;2023-01-06T15:38:37;3.23;;;1.80;;
11921;SDS011;6021;51.182;3.160;2023-01-06T15:41:07;2.77;;;1.97;;
11921;SDS011;6021;51.182;3.160;2023-01-06T15:43:42;2.25;;;2.05;;
11921;SDS011;6021;51.182;3.160;2023-01-06T15:46:12;2.33;;;2.13;;
11921;SDS011;6021;51.182;3.160;2023-01-06T15:48:42;2.63;;;2.43;;
11921;SDS011;6021;51.182;3.160;2023-01-06T15:51:15;2.90;;;2.60;;
11921;SDS011;6021;51.182;3.160;2023-01-06T15:53:46;3.43;;;3.13;;
11921;SDS011;6021;51.182;3.160;2023-01-06T15:56:17;3.40;;;3.10;;
11921;SDS011;6021;51.182;3.160;2023-01-06T15:58:49;4.10;;;3.80;;
11921;SDS011;6021;51.182;3.160;2023-01-06T16:01:20;4.00;;;3.70;;
11921;SDS011;6021;51.182;3.160;2023-01-06T16:03:50;4.23;;;3.83;;
11921;SDS011;6021;51.182;3.160;2023-01-06T16:06:30;4.90;;;4.50;;
11921;SDS011;6021;51.182;3.160;2023-01-06T16:14:37;5.73;;;5.23;;
11921;SDS011;6021;51.182;3.160;2023-01-06T16:17:05;6.40;;;5.80;;
11921;SDS011;6021;51.182;3.160;2023-01-06T16:19:35;6.80;;;6.07;;
11921;SDS011;6021;51.182;3.160;2023-01-06T16:22:07;7.27;;;6.57;;
11921;SDS011;6021;51.182;3.160;2023-01-06T16:24:38;6.20;;;5.60;;
11921;SDS011;6021;51.182;3.160;2023-01-06T16:27:06;7.00;;;6.30;;
11921;SDS011;6021;51.182;3.160;2023-01-06T16:29:36;7.53;;;6.83;;
11921;SDS011;6021;51.182;3.160;2023-01-06T16:35:00;6.40;;;5.80;;
11921;SDS011;6021;51.182;3.160;2023-01-06T16:37:33;5.90;;;5.40;;
11921;SDS011;6021;51.182;3.160;2023-01-06T16:40:02;6.60;;;5.90;;
11921;SDS011;6021;51.182;3.160;2023-01-06T16:42:31;5.93;;;5.43;;
11921;SDS011;6021;51.182;3.160;2023-01-06T16:47:52;6.27;;;5.67;;
11921;SDS011;6021;51.182;3.160;2023-01-06T16:50:22;6.67;;;6.07;;
11921;SDS011;6021;51.182;3.160;2023-01-06T16:55:30;6.57;;;5.80;;
11921;SDS011;6021;51.182;3.160;2023-01-06T16:57:59;6.53;;;5.97;;
11921;SDS011;6021;51.182;3.160;2023-01-06T17:00:27;7.37;;;6.07;;
11921;SDS011;6021;51.182;3.160;2023-01-06T17:02:58;7.53;;;6.83;;
11921;SDS011;6021;51.182;3.160;2023-01-06T17:05:27;7.47;;;6.77;;
11921;SDS011;6021;51.182;3.160;2023-01-06T17:07:58;8.37;;;7.63;;
11921;SDS011;6021;51.182;3.160;2023-01-06T17:10:27;7.77;;;7.03;;
11921;SDS011;6021;51.182;3.160;2023-01-06T17:12:57;7.93;;;7.23;;
11921;SDS011;6021;51.182;3.160;2023-01-06T17:15:44;8.07;;;7.37;;
11921;SDS011;6021;51.182;3.160;2023-01-06T17:18:19;7.57;;;6.87;;
11921;SDS011;6021;51.182;3.160;2023-01-06T17:20:48;7.90;;;7.20;;
11921;SDS011;6021;51.182;3.160;2023-01-06T17:23:17;7.00;;;6.40;;
11921;SDS011;6021;51.182;3.160;2023-01-06T17:25:46;7.67;;;6.97;;
11921;SDS011;6021;51.182;3.160;2023-01-06T17:28:19;7.07;;;6.37;;
11921;SDS011;6021;51.182;3.160;2023-01-06T17:30:48;6.67;;;6.07;;
11921;SDS011;6021;51.182;3.160;2023-01-06T17:33:18;6.97;;;6.30;;
11921;SDS011;6021;51.182;3.160;2023-01-06T17:35:53;7.37;;;6.67;;
11921;SDS011;6021;51.182;3.160;2023-01-06T17:38:18;7.57;;;6.90;;
11921;SDS011;6021;51.182;3.160;2023-01-06T17:40:50;8.30;;;7.50;;
11921;SDS011;6021;51.182;3.160;2023-01-06T17:43:30;7.40;;;6.70;;
11921;SDS011;6021;51.182;3.160;2023-01-06T17:45:59;7.30;;;6.60;;
11921;SDS011;6021;51.182;3.160;2023-01-06T17:48:28;8.20;;;7.23;;
11921;SDS011;6021;51.182;3.160;2023-01-06T17:50:58;7.67;;;6.83;;
11921;SDS011;6021;51.182;3.160;2023-01-06T17:53:27;8.00;;;7.23;;
11921;SDS011;6021;51.182;3.160;2023-01-06T17:56:16;8.83;;;8.10;;